sensor_id;sensor_type;location;lat;lon;timestamp;P1;durP1;ratioP1;P2;durP2;ratioP2
27163;SDS011;14685;50.618;7.024;2022-11-13T00:01:24;11.73;;;8.73;;
27163;SDS011;14685;50.618;7.024;2022-11-13T00:03:50;10.38;;;8.65;;
27163;SDS011;14685;50.618;7.024;2022-11-13T00:06:17;10.88;;;8.27;;
27163;SDS011;14685;50.618;7.024;2022-11-13T00:08:46;10.40;;;8.60;;
27163;SDS011;14685;50.618;7.024;2022-11-13T00:11:15;12.25;;;8.82;;
27163;SDS011;14685;50.618;7.024;2022-11-13T00:13:44;11.18;;;8.70;;
27163;SDS011;14685;50.618;7.024;2022-11-13T00:16:13;11.05;;;8.70;;
27163;SDS011;14685;50.618;7.024;2022-11-13T00:18:45;12.77;;;8.77;;
27163;SDS011;14685;50.618;7.024;2022-11-13T00:21:17;10.63;;;8.40;;
27163;SDS011;14685;50.618;7.024;2022-11-13T00:23:45;10.30;;;8.38;;
27163;SDS011;14685;50.618;7.024;2022-11-13T00:26:14;12.00;;;9.32;;
27163;SDS011;14685;50.618;7.024;2022-11-13T00:28:42;10.63;;;8.63;;
27163;SDS011;14685;50.618;7.024;2022-11-13T00:31:11;13.65;;;8.82;;
27163;SDS011;14685;50.618;7.024;2022-11-13T00:33:39;12.98;;;9.52;;
27163;SDS011;14685;50.618;7.024;2022-11-13T00:36:27;11.68;;;8.25;;
27163;SDS011;14685;50.618;7.024;2022-11-13T00:38:54;12.20;;;9.00;;
27163;SDS011;14685;50.618;7.024;2022-11-13T00:41:21;12.40;;;7.97;;
27163;SDS011;14685;50.618;7.024;2022-11-13T00:43:50;11.82;;;8.32;;
27163;SDS011;14685;50.618;7.024;2022-11-13T00:46:18;11.02;;;8.13;;
27163;SDS011;14685;50.618;7.024;2022-11-13T00:48:45;10.82;;;8.48;;
27163;SDS011;14685;50.618;7.024;2022-11-13T00:51:12;11.57;;;9.23;;
27163;SDS011;14685;50.618;7.024;2022-11-13T00:53:39;11.10;;;8.27;;
27163;SDS011;14685;50.618;7.024;2022-11-13T00:56:07;10.27;;;8.35;;
27163;SDS011;14685;50.618;7.024;2022-11-13T00:58:33;10.35;;;8.63;;
27163;SDS011;14685;50.618;7.024;2022-11-13T01:01:07;11.48;;;9.25;;
27163;SDS011;14685;50.618;7.024;2022-11-13T01:03:37;9.30;;;7.80;;
27163;SDS011;14685;50.618;7.024;2022-11-13T01:06:17;11.90;;;8.25;;
27163;SDS011;14685;50.618;7.024;2022-11-13T01:08:55;11.35;;;8.63;;
27163;SDS011;14685;50.618;7.024;2022-11-13T01:11:27;9.82;;;8.27;;
27163;SDS011;14685;50.618;7.024;2022-11-13T01:13:56;10.55;;;8.63;;
27163;SDS011;14685;50.618;7.024;2022-11-13T01:16:24;12.43;;;8.75;;
27163;SDS011;14685;50.618;7.024;2022-11-13T01:18:53;11.45;;;8.82;;
27163;SDS011;14685;50.618;7.024;2022-11-13T01:21:22;11.52;;;8.65;;
27163;SDS011;14685;50.618;7.024;2022-11-13T01:23:50;11.95;;;8.68;;
27163;SDS011;14685;50.618;7.024;2022-11-13T01:26:19;14.13;;;10.05;;
27163;SDS011;14685;50.618;7.024;2022-11-13T01:28:51;9.15;;;8.20;;
27163;SDS011;14685;50.618;7.024;2022-11-13T01:31:20;10.88;;;8.65;;
27163;SDS011;14685;50.618;7.024;2022-11-13T01:33:49;12.60;;;9.05;;
27163;SDS011;14685;50.618;7.024;2022-11-13T01:36:20;11.95;;;9.75;;
27163;SDS011;14685;50.618;7.024;2022-11-13T01:38:50;11.20;;;8.50;;
27163;SDS011;14685;50.618;7.024;2022-11-13T01:41:23;13.02;;;8.68;;
27163;SDS011;14685;50.618;7.024;2022-11-13T01:43:56;11.43;;;8.77;;
27163;SDS011;14685;50.618;7.024;2022-11-13T01:49:29;11.48;;;8.95;;
27163;SDS011;14685;50.618;7.024;2022-11-13T01:52:01;11.57;;;9.30;;
27163;SDS011;14685;50.618;7.024;2022-11-13T01:54:32;11.82;;;8.77;;
27163;SDS011;14685;50.618;7.024;2022-11-13T01:57:05;12.75;;;8.32;;
27163;SDS011;14685;50.618;7.024;2022-11-13T01:59:37;11.02;;;8.55;;
27163;SDS011;14685;50.618;7.024;2022-11-13T02:02:07;11.30;;;8.98;;
27163;SDS011;14685;50.618;7.024;2022-11-13T02:04:34;11.65;;;8.70;;
27163;SDS011;14685;50.618;7.024;2022-11-13T02:07:03;9.90;;;8.13;;
27163;SDS011;14685;50.618;7.024;2022-11-13T02:09:40;11.93;;;8.45;;
27163;SDS011;14685;50.618;7.024;2022-11-13T02:12:13;10.30;;;8.35;;
27163;SDS011;14685;50.618;7.024;2022-11-13T02:14:43;11.40;;;9.07;;
27163;SDS011;14685;50.618;7.024;2022-11-13T02:17:14;10.82;;;8.02;;
27163;SDS011;14685;50.618;7.024;2022-11-13T02:19:49;9.60;;;8.15;;
27163;SDS011;14685;50.618;7.024;2022-11-13T02:24:56;11.02;;;8.65;;
27163;SDS011;14685;50.618;7.024;2022-11-13T02:27:26;11.65;;;8.63;;
27163;SDS011;14685;50.618;7.024;2022-11-13T02:30:09;10.18;;;8.38;;
27163;SDS011;14685;50.618;7.024;2022-11-13T02:32:45;9.98;;;7.80;;
27163;SDS011;14685;50.618;7.024;2022-11-13T02:35:16;10.43;;;8.02;;
27163;SDS011;14685;50.618;7.024;2022-11-13T02:37:46;9.48;;;8.45;;
27163;SDS011;14685;50.618;7.024;2022-11-13T02:40:13;10.77;;;8.35;;
27163;SDS011;14685;50.618;7.024;2022-11-13T02:42:40;11.38;;;8.50;;
27163;SDS011;14685;50.618;7.024;2022-11-13T02:45:07;9.95;;;8.00;;
27163;SDS011;14685;50.618;7.024;2022-11-13T02:47:34;9.27;;;8.10;;
27163;SDS011;14685;50.618;7.024;2022-11-13T02:50:02;11.18;;;8.48;;
27163;SDS011;14685;50.618;7.024;2022-11-13T02:52:30;10.30;;;8.18;;
27163;SDS011;14685;50.618;7.024;2022-11-13T02:54:57;9.52;;;8.30;;
27163;SDS011;14685;50.618;7.024;2022-11-13T02:57:24;10.57;;;8.13;;
27163;SDS011;14685;50.618;7.024;2022-11-13T02:59:51;12.23;;;9.02;;
27163;SDS011;14685;50.618;7.024;2022-11-13T03:02:17;9.35;;;7.93;;
27163;SDS011;14685;50.618;7.024;2022-11-13T03:04:44;9.52;;;8.00;;
27163;SDS011;14685;50.618;7.024;2022-11-13T03:07:32;10.20;;;7.90;;
27163;SDS011;14685;50.618;7.024;2022-11-13T03:09:59;12.50;;;8.63;;
27163;SDS011;14685;50.618;7.024;2022-11-13T03:12:28;10.05;;;8.43;;
27163;SDS011;14685;50.618;7.024;2022-11-13T03:14:55;10.50;;;8.27;;
27163;SDS011;14685;50.618;7.024;2022-11-13T03:17:22;11.38;;;8.75;;
27163;SDS011;14685;50.618;7.024;2022-11-13T03:19:48;12.20;;;8.52;;
27163;SDS011;14685;50.618;7.024;2022-11-13T03:22:15;10.18;;;8.43;;
27163;SDS011;14685;50.618;7.024;2022-11-13T03:24:42;10.27;;;8.57;;
27163;SDS011;14685;50.618;7.024;2022-11-13T03:27:08;9.30;;;7.80;;
27163;SDS011;14685;50.618;7.024;2022-11-13T03:29:35;11.55;;;8.43;;
27163;SDS011;14685;50.618;7.024;2022-11-13T03:32:02;10.98;;;8.48;;
27163;SDS011;14685;50.618;7.024;2022-11-13T03:34:29;13.50;;;8.88;;
27163;SDS011;14685;50.618;7.024;2022-11-13T03:36:55;11.20;;;8.50;;
27163;SDS011;14685;50.618;7.024;2022-11-13T03:39:22;12.68;;;8.52;;
27163;SDS011;14685;50.618;7.024;2022-11-13T03:41:49;9.88;;;8.15;;
27163;SDS011;14685;50.618;7.024;2022-11-13T03:44:16;11.38;;;8.32;;
27163;SDS011;14685;50.618;7.024;2022-11-13T03:46:43;9.70;;;7.88;;
27163;SDS011;14685;50.618;7.024;2022-11-13T03:49:11;11.77;;;7.90;;
27163;SDS011;14685;50.618;7.024;2022-11-13T03:51:37;11.65;;;8.77;;
27163;SDS011;14685;50.618;7.024;2022-11-13T03:54:04;9.57;;;8.57;;
27163;SDS011;14685;50.618;7.024;2022-11-13T03:56:31;8.57;;;7.70;;
27163;SDS011;14685;50.618;7.024;2022-11-13T03:58:58;10.98;;;8.55;;
27163;SDS011;14685;50.618;7.024;2022-11-13T04:01:24;12.02;;;8.13;;
27163;SDS011;14685;50.618;7.024;2022-11-13T04:03:51;12.70;;;9.13;;
27163;SDS011;14685;50.618;7.024;2022-11-13T04:06:18;11.02;;;8.07;;
27163;SDS011;14685;50.618;7.024;2022-11-13T04:08:47;10.05;;;8.05;;
27163;SDS011;14685;50.618;7.024;2022-11-13T04:11:13;13.45;;;8.75;;
27163;SDS011;14685;50.618;7.024;2022-11-13T04:13:40;11.43;;;8.50;;
27163;SDS011;14685;50.618;7.024;2022-11-13T04:16:07;10.70;;;7.63;;
27163;SDS011;14685;50.618;7.024;2022-11-13T04:18:34;11.65;;;7.97;;
27163;SDS011;14685;50.618;7.024;2022-11-13T04:21:01;8.70;;;7.80;;
27163;SDS011;14685;50.618;7.024;2022-11-13T04:23:29;10.38;;;7.53;;
27163;SDS011;14685;50.618;7.024;2022-11-13T04:25:56;8.93;;;7.25;;
27163;SDS011;14685;50.618;7.024;2022-11-13T04:28:23;11.15;;;7.90;;
27163;SDS011;14685;50.618;7.024;2022-11-13T04:30:53;11.95;;;7.88;;
27163;SDS011;14685;50.618;7.024;2022-11-13T04:33:20;9.43;;;7.70;;
27163;SDS011;14685;50.618;7.024;2022-11-13T04:35:47;9.82;;;7.35;;
27163;SDS011;14685;50.618;7.024;2022-11-13T04:38:14;10.55;;;8.00;;
27163;SDS011;14685;50.618;7.024;2022-11-13T04:40:43;11.70;;;8.20;;
27163;SDS011;14685;50.618;7.024;2022-11-13T04:43:09;9.50;;;7.50;;
27163;SDS011;14685;50.618;7.024;2022-11-13T04:45:36;10.40;;;7.88;;
27163;SDS011;14685;50.618;7.024;2022-11-13T04:48:03;9.98;;;7.97;;
27163;SDS011;14685;50.618;7.024;2022-11-13T04:50:30;10.10;;;8.00;;
27163;SDS011;14685;50.618;7.024;2022-11-13T04:52:57;11.35;;;8.68;;
27163;SDS011;14685;50.618;7.024;2022-11-13T04:55:23;12.35;;;8.15;;
27163;SDS011;14685;50.618;7.024;2022-11-13T04:57:52;9.60;;;7.57;;
27163;SDS011;14685;50.618;7.024;2022-11-13T05:00:20;11.27;;;8.13;;
27163;SDS011;14685;50.618;7.024;2022-11-13T05:02:49;10.48;;;8.35;;
27163;SDS011;14685;50.618;7.024;2022-11-13T05:05:15;15.18;;;8.32;;
27163;SDS011;14685;50.618;7.024;2022-11-13T05:07:43;11.13;;;7.97;;
27163;SDS011;14685;50.618;7.024;2022-11-13T05:10:11;9.52;;;7.93;;
27163;SDS011;14685;50.618;7.024;2022-11-13T05:12:39;12.25;;;8.38;;
27163;SDS011;14685;50.618;7.024;2022-11-13T05:15:05;9.77;;;7.72;;
27163;SDS011;14685;50.618;7.024;2022-11-13T05:17:33;10.65;;;8.27;;
27163;SDS011;14685;50.618;7.024;2022-11-13T05:20:02;9.45;;;8.00;;
27163;SDS011;14685;50.618;7.024;2022-11-13T05:22:30;11.45;;;8.50;;
27163;SDS011;14685;50.618;7.024;2022-11-13T05:24:57;9.20;;;7.97;;
27163;SDS011;14685;50.618;7.024;2022-11-13T05:27:24;9.57;;;7.80;;
27163;SDS011;14685;50.618;7.024;2022-11-13T05:29:50;10.57;;;8.43;;
27163;SDS011;14685;50.618;7.024;2022-11-13T05:32:17;10.15;;;8.27;;
27163;SDS011;14685;50.618;7.024;2022-11-13T05:34:44;9.85;;;7.97;;
27163;SDS011;14685;50.618;7.024;2022-11-13T05:37:11;10.20;;;7.60;;
27163;SDS011;14685;50.618;7.024;2022-11-13T05:39:37;9.80;;;8.02;;
27163;SDS011;14685;50.618;7.024;2022-11-13T05:42:05;9.10;;;7.95;;
27163;SDS011;14685;50.618;7.024;2022-11-13T05:44:32;10.68;;;7.85;;
27163;SDS011;14685;50.618;7.024;2022-11-13T05:46:59;11.27;;;8.65;;
27163;SDS011;14685;50.618;7.024;2022-11-13T05:49:26;10.07;;;8.43;;
27163;SDS011;14685;50.618;7.024;2022-11-13T05:51:53;9.57;;;7.70;;
27163;SDS011;14685;50.618;7.024;2022-11-13T05:54:20;11.02;;;7.75;;
27163;SDS011;14685;50.618;7.024;2022-11-13T05:56:48;9.98;;;7.28;;
27163;SDS011;14685;50.618;7.024;2022-11-13T05:59:15;10.27;;;7.82;;
27163;SDS011;14685;50.618;7.024;2022-11-13T06:01:42;9.27;;;7.75;;
27163;SDS011;14685;50.618;7.024;2022-11-13T06:04:08;10.50;;;7.93;;
27163;SDS011;14685;50.618;7.024;2022-11-13T06:06:36;12.88;;;7.82;;
27163;SDS011;14685;50.618;7.024;2022-11-13T06:09:03;10.05;;;7.75;;
27163;SDS011;14685;50.618;7.024;2022-11-13T06:11:31;10.45;;;8.13;;
27163;SDS011;14685;50.618;7.024;2022-11-13T06:13:59;12.65;;;8.73;;
27163;SDS011;14685;50.618;7.024;2022-11-13T06:16:27;10.75;;;8.02;;
27163;SDS011;14685;50.618;7.024;2022-11-13T06:18:59;13.48;;;8.68;;
27163;SDS011;14685;50.618;7.024;2022-11-13T06:21:28;11.57;;;8.57;;
27163;SDS011;14685;50.618;7.024;2022-11-13T06:23:57;10.88;;;7.97;;
27163;SDS011;14685;50.618;7.024;2022-11-13T06:26:29;11.70;;;7.60;;
27163;SDS011;14685;50.618;7.024;2022-11-13T06:28:58;10.05;;;7.95;;
27163;SDS011;14685;50.618;7.024;2022-11-13T06:31:28;10.82;;;8.15;;
27163;SDS011;14685;50.618;7.024;2022-11-13T06:33:57;10.93;;;8.00;;
27163;SDS011;14685;50.618;7.024;2022-11-13T06:36:25;8.93;;;7.45;;
27163;SDS011;14685;50.618;7.024;2022-11-13T06:38:56;8.48;;;7.18;;
27163;SDS011;14685;50.618;7.024;2022-11-13T06:41:28;9.32;;;7.60;;
27163;SDS011;14685;50.618;7.024;2022-11-13T06:43:57;9.90;;;7.15;;
27163;SDS011;14685;50.618;7.024;2022-11-13T06:46:28;8.90;;;7.28;;
27163;SDS011;14685;50.618;7.024;2022-11-13T06:48:56;8.93;;;6.85;;
27163;SDS011;14685;50.618;7.024;2022-11-13T06:51:25;9.25;;;7.60;;
27163;SDS011;14685;50.618;7.024;2022-11-13T06:53:53;9.93;;;6.78;;
27163;SDS011;14685;50.618;7.024;2022-11-13T06:56:22;9.35;;;7.22;;
27163;SDS011;14685;50.618;7.024;2022-11-13T06:58:50;9.25;;;7.13;;
27163;SDS011;14685;50.618;7.024;2022-11-13T07:01:18;8.63;;;7.22;;
27163;SDS011;14685;50.618;7.024;2022-11-13T07:03:46;9.23;;;7.40;;
27163;SDS011;14685;50.618;7.024;2022-11-13T07:06:15;9.43;;;6.72;;
27163;SDS011;14685;50.618;7.024;2022-11-13T07:08:44;9.90;;;7.25;;
27163;SDS011;14685;50.618;7.024;2022-11-13T07:11:13;7.85;;;6.30;;
27163;SDS011;14685;50.618;7.024;2022-11-13T07:13:41;10.82;;;7.45;;
27163;SDS011;14685;50.618;7.024;2022-11-13T07:16:08;11.20;;;6.82;;
27163;SDS011;14685;50.618;7.024;2022-11-13T07:18:43;10.80;;;7.20;;
27163;SDS011;14685;50.618;7.024;2022-11-13T07:21:14;8.55;;;6.57;;
27163;SDS011;14685;50.618;7.024;2022-11-13T07:23:41;10.68;;;7.03;;
27163;SDS011;14685;50.618;7.024;2022-11-13T07:26:12;9.27;;;7.05;;
27163;SDS011;14685;50.618;7.024;2022-11-13T07:28:39;8.15;;;7.20;;
27163;SDS011;14685;50.618;7.024;2022-11-13T07:31:06;9.57;;;6.90;;
27163;SDS011;14685;50.618;7.024;2022-11-13T07:33:37;12.35;;;7.32;;
27163;SDS011;14685;50.618;7.024;2022-11-13T07:36:04;9.32;;;6.30;;
27163;SDS011;14685;50.618;7.024;2022-11-13T07:38:31;9.65;;;6.45;;
27163;SDS011;14685;50.618;7.024;2022-11-13T07:40:58;8.88;;;6.90;;
27163;SDS011;14685;50.618;7.024;2022-11-13T07:43:26;9.25;;;6.75;;
27163;SDS011;14685;50.618;7.024;2022-11-13T07:45:53;11.80;;;6.47;;
27163;SDS011;14685;50.618;7.024;2022-11-13T07:48:22;8.20;;;6.50;;
27163;SDS011;14685;50.618;7.024;2022-11-13T07:50:50;8.48;;;5.88;;
27163;SDS011;14685;50.618;7.024;2022-11-13T07:53:17;7.63;;;5.47;;
27163;SDS011;14685;50.618;7.024;2022-11-13T07:55:46;7.95;;;5.97;;
27163;SDS011;14685;50.618;7.024;2022-11-13T07:58:13;7.45;;;6.07;;
27163;SDS011;14685;50.618;7.024;2022-11-13T08:00:41;7.80;;;5.80;;
27163;SDS011;14685;50.618;7.024;2022-11-13T08:03:13;6.65;;;5.32;;
27163;SDS011;14685;50.618;7.024;2022-11-13T08:05:42;7.75;;;5.70;;
27163;SDS011;14685;50.618;7.024;2022-11-13T08:08:13;8.27;;;5.82;;
27163;SDS011;14685;50.618;7.024;2022-11-13T08:10:40;8.00;;;6.18;;
27163;SDS011;14685;50.618;7.024;2022-11-13T08:13:08;7.80;;;6.35;;
27163;SDS011;14685;50.618;7.024;2022-11-13T08:15:36;9.02;;;6.30;;
27163;SDS011;14685;50.618;7.024;2022-11-13T08:18:03;8.73;;;6.07;;
27163;SDS011;14685;50.618;7.024;2022-11-13T08:20:31;8.02;;;5.90;;
27163;SDS011;14685;50.618;7.024;2022-11-13T08:22:58;6.95;;;5.45;;
27163;SDS011;14685;50.618;7.024;2022-11-13T08:25:26;6.65;;;5.95;;
27163;SDS011;14685;50.618;7.024;2022-11-13T08:27:54;7.38;;;6.10;;
27163;SDS011;14685;50.618;7.024;2022-11-13T08:30:23;9.32;;;6.28;;
27163;SDS011;14685;50.618;7.024;2022-11-13T08:32:51;6.45;;;5.55;;
27163;SDS011;14685;50.618;7.024;2022-11-13T08:35:18;8.05;;;5.68;;
27163;SDS011;14685;50.618;7.024;2022-11-13T08:37:54;6.30;;;5.55;;
27163;SDS011;14685;50.618;7.024;2022-11-13T08:40:21;6.28;;;5.38;;
27163;SDS011;14685;50.618;7.024;2022-11-13T08:42:49;7.65;;;5.38;;
27163;SDS011;14685;50.618;7.024;2022-11-13T08:45:16;5.72;;;5.13;;
27163;SDS011;14685;50.618;7.024;2022-11-13T08:47:43;5.93;;;4.82;;
27163;SDS011;14685;50.618;7.024;2022-11-13T08:50:11;6.30;;;5.70;;
27163;SDS011;14685;50.618;7.024;2022-11-13T08:52:37;7.45;;;5.20;;
27163;SDS011;14685;50.618;7.024;2022-11-13T08:55:04;6.93;;;5.15;;
27163;SDS011;14685;50.618;7.024;2022-11-13T08:57:32;6.75;;;4.65;;
27163;SDS011;14685;50.618;7.024;2022-11-13T08:59:59;5.35;;;4.70;;
27163;SDS011;14685;50.618;7.024;2022-11-13T09:02:26;5.45;;;4.15;;
27163;SDS011;14685;50.618;7.024;2022-11-13T09:04:53;5.50;;;4.97;;
27163;SDS011;14685;50.618;7.024;2022-11-13T09:07:20;4.85;;;4.32;;
27163;SDS011;14685;50.618;7.024;2022-11-13T09:09:52;6.20;;;3.90;;
27163;SDS011;14685;50.618;7.024;2022-11-13T09:12:21;5.15;;;4.25;;
27163;SDS011;14685;50.618;7.024;2022-11-13T09:14:48;4.20;;;3.80;;
27163;SDS011;14685;50.618;7.024;2022-11-13T09:17:16;4.97;;;3.47;;
27163;SDS011;14685;50.618;7.024;2022-11-13T09:19:43;5.07;;;3.83;;
27163;SDS011;14685;50.618;7.024;2022-11-13T09:22:11;3.88;;;3.20;;
27163;SDS011;14685;50.618;7.024;2022-11-13T09:24:38;4.03;;;3.60;;
27163;SDS011;14685;50.618;7.024;2022-11-13T09:27:06;4.03;;;3.22;;
27163;SDS011;14685;50.618;7.024;2022-11-13T09:29:32;3.78;;;3.40;;
27163;SDS011;14685;50.618;7.024;2022-11-13T09:32:00;10.60;;;3.35;;
27163;SDS011;14685;50.618;7.024;2022-11-13T09:34:28;5.00;;;3.75;;
27163;SDS011;14685;50.618;7.024;2022-11-13T09:36:55;4.43;;;3.25;;
27163;SDS011;14685;50.618;7.024;2022-11-13T09:39:23;4.75;;;3.13;;
27163;SDS011;14685;50.618;7.024;2022-11-13T09:44:19;3.55;;;2.95;;
27163;SDS011;14685;50.618;7.024;2022-11-13T09:49:48;2.80;;;2.60;;
27163;SDS011;14685;50.618;7.024;2022-11-13T09:52:24;2.95;;;2.50;;
27163;SDS011;14685;50.618;7.024;2022-11-13T09:55:03;2.75;;;2.50;;
27163;SDS011;14685;50.618;7.024;2022-11-13T09:57:34;4.80;;;2.63;;
27163;SDS011;14685;50.618;7.024;2022-11-13T10:00:18;3.58;;;2.85;;
27163;SDS011;14685;50.618;7.024;2022-11-13T10:03:08;3.38;;;2.78;;
27163;SDS011;14685;50.618;7.024;2022-11-13T10:08:52;4.25;;;2.63;;
27163;SDS011;14685;50.618;7.024;2022-11-13T10:14:27;4.13;;;2.35;;
27163;SDS011;14685;50.618;7.024;2022-11-13T10:17:00;3.33;;;2.67;;
27163;SDS011;14685;50.618;7.024;2022-11-13T10:20:06;3.33;;;2.40;;
27163;SDS011;14685;50.618;7.024;2022-11-13T10:22:38;3.17;;;2.75;;
27163;SDS011;14685;50.618;7.024;2022-11-13T10:25:11;3.33;;;2.60;;
27163;SDS011;14685;50.618;7.024;2022-11-13T10:27:47;2.72;;;2.30;;
27163;SDS011;14685;50.618;7.024;2022-11-13T10:30:21;3.30;;;2.90;;
27163;SDS011;14685;50.618;7.024;2022-11-13T10:32:49;3.45;;;2.70;;
27163;SDS011;14685;50.618;7.024;2022-11-13T10:47:26;3.15;;;2.45;;
27163;SDS011;14685;50.618;7.024;2022-11-13T10:50:26;2.95;;;2.28;;
27163;SDS011;14685;50.618;7.024;2022-11-13T10:52:55;2.20;;;2.00;;
27163;SDS011;14685;50.618;7.024;2022-11-13T10:58:12;3.30;;;2.20;;
27163;SDS011;14685;50.618;7.024;2022-11-13T11:00:41;2.88;;;2.58;;
27163;SDS011;14685;50.618;7.024;2022-11-13T11:03:13;2.63;;;2.25;;
27163;SDS011;14685;50.618;7.024;2022-11-13T11:05:52;4.70;;;2.47;;
27163;SDS011;14685;50.618;7.024;2022-11-13T11:08:35;2.88;;;1.80;;
27163;SDS011;14685;50.618;7.024;2022-11-13T11:11:07;2.13;;;1.92;;
27163;SDS011;14685;50.618;7.024;2022-11-13T11:14:14;3.13;;;2.28;;
27163;SDS011;14685;50.618;7.024;2022-11-13T11:16:50;4.47;;;1.90;;
27163;SDS011;14685;50.618;7.024;2022-11-13T11:19:20;2.70;;;1.90;;
27163;SDS011;14685;50.618;7.024;2022-11-13T11:21:51;2.33;;;2.13;;
27163;SDS011;14685;50.618;7.024;2022-11-13T11:24:39;2.92;;;2.00;;
27163;SDS011;14685;50.618;7.024;2022-11-13T11:27:15;2.50;;;2.30;;
27163;SDS011;14685;50.618;7.024;2022-11-13T11:32:50;3.38;;;2.03;;
27163;SDS011;14685;50.618;7.024;2022-11-13T11:35:41;3.45;;;2.28;;
27163;SDS011;14685;50.618;7.024;2022-11-13T11:41:08;2.40;;;1.77;;
27163;SDS011;14685;50.618;7.024;2022-11-13T11:43:50;2.80;;;1.85;;
27163;SDS011;14685;50.618;7.024;2022-11-13T11:46:27;4.53;;;2.15;;
27163;SDS011;14685;50.618;7.024;2022-11-13T11:48:57;2.42;;;2.20;;
27163;SDS011;14685;50.618;7.024;2022-11-13T11:51:30;3.20;;;2.25;;
27163;SDS011;14685;50.618;7.024;2022-11-13T11:56:49;2.45;;;2.25;;
27163;SDS011;14685;50.618;7.024;2022-11-13T12:07:58;2.00;;;1.90;;
27163;SDS011;14685;50.618;7.024;2022-11-13T12:18:26;2.50;;;2.00;;
27163;SDS011;14685;50.618;7.024;2022-11-13T12:26:52;8.02;;;5.80;;
27163;SDS011;14685;50.618;7.024;2022-11-13T12:30:07;2.83;;;2.22;;
27163;SDS011;14685;50.618;7.024;2022-11-13T12:35:21;2.72;;;1.95;;
27163;SDS011;14685;50.618;7.024;2022-11-13T12:37:52;2.55;;;2.00;;
27163;SDS011;14685;50.618;7.024;2022-11-13T12:40:36;2.22;;;2.03;;
27163;SDS011;14685;50.618;7.024;2022-11-13T12:43:25;3.08;;;2.03;;
27163;SDS011;14685;50.618;7.024;2022-11-13T12:45:59;2.50;;;2.17;;
27163;SDS011;14685;50.618;7.024;2022-11-13T12:48:34;2.63;;;1.77;;
27163;SDS011;14685;50.618;7.024;2022-11-13T12:51:03;2.03;;;1.90;;
27163;SDS011;14685;50.618;7.024;2022-11-13T12:53:48;2.78;;;2.38;;
27163;SDS011;14685;50.618;7.024;2022-11-13T13:07:41;1.75;;;1.45;;
27163;SDS011;14685;50.618;7.024;2022-11-13T13:10:32;2.60;;;1.70;;
27163;SDS011;14685;50.618;7.024;2022-11-13T13:13:24;2.25;;;2.05;;
27163;SDS011;14685;50.618;7.024;2022-11-13T13:16:08;1.60;;;1.50;;
27163;SDS011;14685;50.618;7.024;2022-11-13T13:18:36;3.95;;;2.08;;
27163;SDS011;14685;50.618;7.024;2022-11-13T13:21:05;2.50;;;2.00;;
27163;SDS011;14685;50.618;7.024;2022-11-13T13:26:02;1.80;;;1.50;;
27163;SDS011;14685;50.618;7.024;2022-11-13T13:28:54;1.98;;;1.77;;
27163;SDS011;14685;50.618;7.024;2022-11-13T13:37:13;2.05;;;1.83;;
27163;SDS011;14685;50.618;7.024;2022-11-13T13:47:50;1.88;;;1.60;;
27163;SDS011;14685;50.618;7.024;2022-11-13T13:50:21;1.92;;;1.50;;
27163;SDS011;14685;50.618;7.024;2022-11-13T13:52:51;3.42;;;1.65;;
27163;SDS011;14685;50.618;7.024;2022-11-13T13:55:23;1.67;;;1.58;;
27163;SDS011;14685;50.618;7.024;2022-11-13T13:57:59;2.53;;;1.80;;
27163;SDS011;14685;50.618;7.024;2022-11-13T14:00:30;1.75;;;1.60;;
27163;SDS011;14685;50.618;7.024;2022-11-13T14:03:00;4.35;;;1.83;;
27163;SDS011;14685;50.618;7.024;2022-11-13T14:05:29;3.50;;;1.60;;
27163;SDS011;14685;50.618;7.024;2022-11-13T14:07:56;1.95;;;1.80;;
27163;SDS011;14685;50.618;7.024;2022-11-13T14:10:25;2.50;;;1.40;;
27163;SDS011;14685;50.618;7.024;2022-11-13T14:12:54;7.45;;;2.25;;
27163;SDS011;14685;50.618;7.024;2022-11-13T14:15:26;6.55;;;3.08;;
27163;SDS011;14685;50.618;7.024;2022-11-13T14:18:14;1.90;;;1.70;;
27163;SDS011;14685;50.618;7.024;2022-11-13T14:23:26;1.75;;;1.55;;
27163;SDS011;14685;50.618;7.024;2022-11-13T14:25:54;4.03;;;2.20;;
27163;SDS011;14685;50.618;7.024;2022-11-13T14:28:29;2.83;;;2.00;;
27163;SDS011;14685;50.618;7.024;2022-11-13T14:30:59;4.20;;;2.35;;
27163;SDS011;14685;50.618;7.024;2022-11-13T14:33:34;2.90;;;2.30;;
27163;SDS011;14685;50.618;7.024;2022-11-13T14:36:08;3.22;;;2.10;;
27163;SDS011;14685;50.618;7.024;2022-11-13T14:38:38;4.18;;;2.78;;
27163;SDS011;14685;50.618;7.024;2022-11-13T14:41:23;3.70;;;2.83;;
27163;SDS011;14685;50.618;7.024;2022-11-13T14:44:05;2.65;;;2.03;;
27163;SDS011;14685;50.618;7.024;2022-11-13T14:49:02;2.20;;;2.00;;
27163;SDS011;14685;50.618;7.024;2022-11-13T14:51:37;2.75;;;2.40;;
27163;SDS011;14685;50.618;7.024;2022-11-13T14:54:05;2.78;;;2.42;;
27163;SDS011;14685;50.618;7.024;2022-11-13T14:56:36;3.50;;;2.83;;
27163;SDS011;14685;50.618;7.024;2022-11-13T15:01:54;4.68;;;3.28;;
27163;SDS011;14685;50.618;7.024;2022-11-13T15:04:21;5.25;;;4.15;;
27163;SDS011;14685;50.618;7.024;2022-11-13T15:06:50;3.95;;;3.55;;
27163;SDS011;14685;50.618;7.024;2022-11-13T15:09:22;6.35;;;4.72;;
27163;SDS011;14685;50.618;7.024;2022-11-13T15:11:49;7.82;;;6.10;;
27163;SDS011;14685;50.618;7.024;2022-11-13T15:14:19;5.05;;;4.25;;
27163;SDS011;14685;50.618;7.024;2022-11-13T15:16:46;6.75;;;3.55;;
27163;SDS011;14685;50.618;7.024;2022-11-13T15:21:54;4.07;;;2.40;;
27163;SDS011;14685;50.618;7.024;2022-11-13T15:24:41;3.95;;;3.22;;
27163;SDS011;14685;50.618;7.024;2022-11-13T15:27:12;6.45;;;3.88;;
27163;SDS011;14685;50.618;7.024;2022-11-13T15:29:40;6.82;;;3.40;;
27163;SDS011;14685;50.618;7.024;2022-11-13T15:32:11;5.93;;;3.47;;
27163;SDS011;14685;50.618;7.024;2022-11-13T15:34:40;4.93;;;3.67;;
27163;SDS011;14685;50.618;7.024;2022-11-13T15:37:09;7.07;;;4.50;;
27163;SDS011;14685;50.618;7.024;2022-11-13T15:39:40;3.27;;;2.60;;
27163;SDS011;14685;50.618;7.024;2022-11-13T15:42:12;4.28;;;3.67;;
27163;SDS011;14685;50.618;7.024;2022-11-13T15:44:41;3.67;;;3.25;;
27163;SDS011;14685;50.618;7.024;2022-11-13T15:49:52;5.03;;;4.20;;
27163;SDS011;14685;50.618;7.024;2022-11-13T15:52:39;20.08;;;14.73;;
27163;SDS011;14685;50.618;7.024;2022-11-13T15:55:24;15.85;;;12.10;;
27163;SDS011;14685;50.618;7.024;2022-11-13T15:57:56;12.05;;;9.98;;
27163;SDS011;14685;50.618;7.024;2022-11-13T16:00:24;10.18;;;8.35;;
27163;SDS011;14685;50.618;7.024;2022-11-13T16:02:52;7.43;;;4.78;;
27163;SDS011;14685;50.618;7.024;2022-11-13T16:05:22;5.80;;;3.88;;
27163;SDS011;14685;50.618;7.024;2022-11-13T16:07:51;4.13;;;3.20;;
27163;SDS011;14685;50.618;7.024;2022-11-13T16:10:19;2.47;;;2.28;;
27163;SDS011;14685;50.618;7.024;2022-11-13T16:12:47;2.58;;;2.28;;
27163;SDS011;14685;50.618;7.024;2022-11-13T16:15:14;4.70;;;2.78;;
27163;SDS011;14685;50.618;7.024;2022-11-13T16:17:47;3.13;;;2.40;;
27163;SDS011;14685;50.618;7.024;2022-11-13T16:20:17;3.15;;;2.22;;
27163;SDS011;14685;50.618;7.024;2022-11-13T16:22:44;3.05;;;2.40;;
27163;SDS011;14685;50.618;7.024;2022-11-13T16:25:13;4.03;;;2.88;;
27163;SDS011;14685;50.618;7.024;2022-11-13T16:27:42;4.90;;;2.70;;
27163;SDS011;14685;50.618;7.024;2022-11-13T16:30:18;4.82;;;2.67;;
27163;SDS011;14685;50.618;7.024;2022-11-13T16:32:48;6.10;;;3.90;;
27163;SDS011;14685;50.618;7.024;2022-11-13T16:35:16;10.27;;;6.60;;
27163;SDS011;14685;50.618;7.024;2022-11-13T16:37:44;16.05;;;8.55;;
27163;SDS011;14685;50.618;7.024;2022-11-13T16:40:22;17.73;;;10.05;;
27163;SDS011;14685;50.618;7.024;2022-11-13T16:42:51;18.00;;;9.25;;
27163;SDS011;14685;50.618;7.024;2022-11-13T16:45:18;13.75;;;8.73;;
27163;SDS011;14685;50.618;7.024;2022-11-13T16:47:46;15.95;;;8.77;;
27163;SDS011;14685;50.618;7.024;2022-11-13T16:50:17;13.18;;;8.82;;